createdAt,value
2022-10-28T00:01:13.864Z,14.09
2022-10-28T00:03:55.248Z,14.01
2022-10-28T00:06:25.604Z,13.97
2022-10-28T00:08:53.494Z,13.96
2022-10-28T00:11:23.836Z,13.95
2022-10-28T00:13:54.186Z,13.88
2022-10-28T00:16:27.079Z,13.87
2022-10-28T00:18:55.143Z,13.87
2022-10-28T00:21:25.867Z,13.78
2022-10-28T00:23:53.423Z,13.85
2022-10-28T00:26:24.270Z,13.87
2022-10-28T00:29:02.610Z,13.87
2022-10-28T00:31:31.838Z,13.89
2022-10-28T00:34:00.986Z,13.90
2022-10-28T00:36:31.737Z,13.91
2022-10-28T00:39:00.176Z,13.90
2022-10-28T00:41:31.420Z,13.91
2022-10-28T00:44:05.023Z,13.90
2022-10-28T00:46:42.042Z,13.88
2022-10-28T00:49:17.815Z,13.86
2022-10-28T00:51:49.566Z,13.79
2022-10-28T00:54:18.673Z,13.82
2022-10-28T00:56:49.664Z,13.80
2022-10-28T00:59:23.821Z,13.75
2022-10-28T01:01:51.497Z,13.75
2022-10-28T01:04:19.690Z,13.72
2022-10-28T01:06:48.957Z,13.72
2022-10-28T01:09:16.455Z,13.66
2022-10-28T01:12:06.179Z,13.66
2022-10-28T01:15:01.265Z,13.64
2022-10-28T01:17:33.135Z,13.63
2022-10-28T01:20:12.663Z,13.64
2022-10-28T01:22:52.301Z,13.63
2022-10-28T01:25:32.162Z,13.61
2022-10-28T01:28:17.939Z,13.58
2022-10-28T01:31:15.658Z,13.58
2022-10-28T01:34:00.058Z,13.53
2022-10-28T01:36:33.384Z,13.52
2022-10-28T01:39:20.813Z,13.52
2022-10-28T01:42:06.176Z,13.54
2022-10-28T01:45:01.389Z,13.49
2022-10-28T01:47:50.351Z,13.46
2022-10-28T01:50:29.333Z,13.42
2022-10-28T01:53:01.173Z,13.39
2022-10-28T01:55:33.474Z,13.34
2022-10-28T01:58:01.632Z,13.34
2022-10-28T02:00:30.982Z,13.34
2022-10-28T02:02:58.674Z,13.30
2022-10-28T02:05:46.178Z,13.28
2022-10-28T02:08:23.302Z,13.25
2022-10-28T02:11:03.009Z,13.21
2022-10-28T02:13:42.801Z,13.17
2022-10-28T02:16:32.878Z,13.13
2022-10-28T02:19:09.877Z,13.17
2022-10-28T02:21:50.615Z,13.14
2022-10-28T02:24:34.210Z,13.08
2022-10-28T02:27:11.386Z,13.12
2022-10-28T02:29:46.481Z,13.13
2022-10-28T02:32:20.748Z,13.11
2022-10-28T02:34:53.649Z,13.13
2022-10-28T02:37:30.605Z,13.10
2022-10-28T02:40:02.669Z,13.13
2022-10-28T02:42:35.949Z,13.00
2022-10-28T02:45:14.575Z,13.12
2022-10-28T02:47:47.855Z,13.06
2022-10-28T02:50:18.879Z,13.05
2022-10-28T02:52:51.173Z,13.02
2022-10-28T02:55:21.774Z,12.99
2022-10-28T02:57:49.941Z,13.05
2022-10-28T03:00:24.570Z,13.08
2022-10-28T03:02:52.440Z,13.08
2022-10-28T03:05:20.729Z,13.04
2022-10-28T03:07:48.197Z,13.06
2022-10-28T03:10:15.815Z,13.04
2022-10-28T03:12:43.256Z,13.11
2022-10-28T03:15:11.153Z,13.11
2022-10-28T03:17:38.603Z,13.13
2022-10-28T03:20:06.557Z,13.19
2022-10-28T03:22:34.125Z,13.22
2022-10-28T03:25:01.562Z,13.22
2022-10-28T03:27:29.069Z,13.20
2022-10-28T03:29:56.517Z,13.24
2022-10-28T03:32:23.971Z,13.24
2022-10-28T03:34:51.450Z,13.24
2022-10-28T03:37:18.922Z,13.22
2022-10-28T03:39:46.385Z,13.20
2022-10-28T03:42:13.964Z,13.21
2022-10-28T03:44:41.401Z,13.14
2022-10-28T03:47:09.097Z,13.17
2022-10-28T03:49:36.557Z,13.14
2022-10-28T03:52:04.065Z,13.08
2022-10-28T03:54:31.538Z,13.10
2022-10-28T03:56:58.991Z,13.07
2022-10-28T03:59:26.433Z,13.03
2022-10-28T04:01:54.022Z,13.01
2022-10-28T04:04:21.587Z,12.98
2022-10-28T04:06:49.004Z,12.96
2022-10-28T04:09:16.438Z,12.93
2022-10-28T04:11:43.886Z,12.84
2022-10-28T04:14:11.334Z,12.87
2022-10-28T04:16:38.764Z,12.82
2022-10-28T04:19:06.214Z,12.77
2022-10-28T04:21:33.711Z,12.75
2022-10-28T04:24:01.141Z,12.73
2022-10-28T04:26:30.628Z,12.70
2022-10-28T04:28:58.324Z,12.72
2022-10-28T04:31:25.773Z,12.75
2022-10-28T04:33:53.239Z,12.73
2022-10-28T04:36:20.706Z,12.71
2022-10-28T04:38:48.189Z,12.66
2022-10-28T04:41:16.018Z,12.64
2022-10-28T04:43:43.468Z,12.62
2022-10-28T04:46:11.218Z,12.59
2022-10-28T04:48:38.648Z,12.59
2022-10-28T04:51:06.339Z,12.62
2022-10-28T04:53:33.794Z,12.68
2022-10-28T04:56:01.336Z,12.65
2022-10-28T04:58:28.811Z,12.70
2022-10-28T05:00:56.341Z,12.73
2022-10-28T05:03:23.825Z,12.85
2022-10-28T05:05:51.494Z,12.90
2022-10-28T05:08:18.966Z,12.97
2022-10-28T05:10:49.966Z,12.98
2022-10-28T05:13:18.315Z,13.00
2022-10-28T05:15:46.284Z,13.02
2022-10-28T05:18:13.779Z,13.01
2022-10-28T05:20:41.530Z,13.10
2022-10-28T05:23:09.007Z,13.17
2022-10-28T05:25:36.737Z,13.18
2022-10-28T05:28:04.251Z,13.18
2022-10-28T05:30:31.708Z,13.22
2022-10-28T05:33:03.014Z,13.25
2022-10-28T05:35:31.307Z,13.23
2022-10-28T05:37:59.138Z,13.20
2022-10-28T05:40:26.858Z,13.15
2022-10-28T05:42:54.629Z,13.20
2022-10-28T05:45:22.347Z,13.20
2022-10-28T05:47:50.081Z,13.22
2022-10-28T05:50:20.461Z,13.22
2022-10-28T05:52:49.812Z,13.25
2022-10-28T05:55:19.534Z,13.23
2022-10-28T05:57:48.432Z,13.19
2022-10-28T06:00:17.261Z,13.21
2022-10-28T06:02:44.743Z,13.27
2022-10-28T06:05:12.728Z,13.29
2022-10-28T06:07:41.830Z,13.30
2022-10-28T06:10:11.154Z,13.32
2022-10-28T06:12:37.459Z,13.28
2022-10-28T06:15:05.359Z,13.25
2022-10-28T06:17:32.849Z,13.29
2022-10-28T06:20:00.313Z,13.25
2022-10-28T06:22:27.838Z,13.21
2022-10-28T06:24:55.305Z,13.25
2022-10-28T06:27:22.736Z,13.27
2022-10-28T06:29:50.199Z,13.26
2022-10-28T06:32:18.815Z,13.26
2022-10-28T06:34:46.946Z,13.21
2022-10-28T06:37:14.510Z,13.29
2022-10-28T06:39:42.950Z,13.32
2022-10-28T06:42:10.400Z,13.36
2022-10-28T06:44:37.903Z,13.37
2022-10-28T06:47:06.911Z,13.40
2022-10-28T06:49:34.401Z,13.43
2022-10-28T06:52:02.008Z,13.45
2022-10-28T06:54:29.459Z,13.45
2022-10-28T06:56:56.971Z,13.43
2022-10-28T06:59:24.517Z,13.46
2022-10-28T07:01:52.149Z,13.46
2022-10-28T07:04:19.722Z,13.50
2022-10-28T07:06:49.858Z,13.54
2022-10-28T07:09:19.395Z,13.64
2022-10-28T07:11:54.861Z,13.68
2022-10-28T07:14:23.065Z,13.72
2022-10-28T07:16:50.531Z,13.81
2022-10-28T07:19:20.346Z,13.87
2022-10-28T07:21:50.008Z,13.89
2022-10-28T07:24:17.620Z,13.97
2022-10-28T07:26:45.197Z,14.03
2022-10-28T07:29:12.698Z,14.10
2022-10-28T07:31:40.212Z,14.16
2022-10-28T07:34:07.853Z,14.19
2022-10-28T07:36:35.336Z,14.24
2022-10-28T07:39:02.988Z,14.28
2022-10-28T07:41:30.488Z,14.32
2022-10-28T07:43:58.011Z,14.41
2022-10-28T07:46:25.503Z,14.51
2022-10-28T07:48:52.951Z,14.61
2022-10-28T07:51:20.430Z,14.72
2022-10-28T07:53:47.908Z,14.78
2022-10-28T07:56:15.399Z,14.88
2022-10-28T07:58:44.687Z,14.97
2022-10-28T08:01:14.274Z,15.06
2022-10-28T08:03:42.303Z,15.20
2022-10-28T08:06:12.549Z,15.29
2022-10-28T08:08:40.885Z,15.42
2022-10-28T08:11:20.146Z,15.48
2022-10-28T08:13:48.198Z,15.60
2022-10-28T08:16:15.695Z,15.66
2022-10-28T08:18:43.489Z,15.76
2022-10-28T08:21:12.488Z,15.80
2022-10-28T08:23:41.386Z,15.99
2022-10-28T08:26:09.362Z,16.09
2022-10-28T08:28:36.833Z,16.14
2022-10-28T08:31:09.427Z,16.21
2022-10-28T08:33:38.942Z,16.29
2022-10-28T08:36:07.899Z,16.37
2022-10-28T08:38:35.361Z,16.33
2022-10-28T08:41:25.700Z,16.48
2022-10-28T08:44:11.601Z,16.52
2022-10-28T08:47:01.567Z,16.61
2022-10-28T08:49:33.163Z,16.68
2022-10-28T08:52:10.770Z,16.82
2022-10-28T08:54:47.309Z,16.86
2022-10-28T08:57:21.536Z,17.03
2022-10-28T08:59:52.949Z,17.07
2022-10-28T09:02:34.160Z,17.18
2022-10-28T09:05:28.472Z,17.24
2022-10-28T09:07:57.496Z,17.31
2022-10-28T09:10:51.153Z,17.34
2022-10-28T09:13:48.650Z,17.40
2022-10-28T09:16:41.106Z,17.52
2022-10-28T09:19:16.637Z,17.60
2022-10-28T09:21:51.987Z,17.62
2022-10-28T09:24:32.493Z,17.64
2022-10-28T09:27:27.078Z,17.60
2022-10-28T09:30:06.600Z,17.54
2022-10-28T09:32:56.411Z,17.57
2022-10-28T09:35:27.663Z,17.61
2022-10-28T09:38:08.633Z,17.63
2022-10-28T09:40:37.647Z,17.62
2022-10-28T09:43:21.490Z,17.64
2022-10-28T09:45:53.039Z,17.78
2022-10-28T09:48:22.703Z,18.18
2022-10-28T09:50:53.287Z,18.50
2022-10-28T09:53:38.737Z,18.66
2022-10-28T09:58:45.014Z,18.81
2022-10-28T10:01:12.631Z,18.86
2022-10-28T10:03:41.799Z,18.91
2022-10-28T10:06:15.279Z,18.89
2022-10-28T10:08:43.043Z,19.09
2022-10-28T10:11:25.779Z,19.45
2022-10-28T10:13:53.800Z,19.53
2022-10-28T10:16:44.483Z,19.53
2022-10-28T10:19:12.196Z,19.51
2022-10-28T10:21:59.923Z,19.55
2022-10-28T10:24:30.446Z,19.71
2022-10-28T10:27:01.574Z,19.86
2022-10-28T10:29:30.355Z,19.85
2022-10-28T10:32:19.757Z,20.23
2022-10-28T10:34:55.454Z,20.37
2022-10-28T10:37:23.992Z,20.39
2022-10-28T10:40:02.818Z,20.31
2022-10-28T10:42:30.351Z,20.51
2022-10-28T10:45:17.145Z,20.66
2022-10-28T10:47:44.591Z,20.75
2022-10-28T10:50:33.253Z,20.81
2022-10-28T10:53:02.446Z,20.84
2022-10-28T10:55:41.546Z,20.55
2022-10-28T10:58:19.287Z,20.66
2022-10-28T11:00:50.229Z,20.57
2022-10-28T11:03:32.040Z,20.52
2022-10-28T11:08:49.854Z,20.59
2022-10-28T11:11:22.709Z,20.70
2022-10-28T11:14:03.189Z,20.54
2022-10-28T11:16:30.757Z,20.63
2022-10-28T11:18:58.313Z,20.67
2022-10-28T11:21:51.549Z,20.67
2022-10-28T11:24:40.085Z,20.57
2022-10-28T11:27:35.411Z,20.62
2022-10-28T11:30:05.521Z,20.69
2022-10-28T11:32:54.460Z,20.79
2022-10-28T11:36:11.500Z,20.96
2022-10-28T11:38:58.885Z,21.01
2022-10-28T11:41:38.280Z,20.97
2022-10-28T11:44:20.029Z,21.02
2022-10-28T11:47:00.859Z,21.02
2022-10-28T11:49:59.079Z,20.86
2022-10-28T11:52:35.847Z,20.77
2022-10-28T11:55:19.256Z,20.79
2022-10-28T11:57:57.483Z,20.81
2022-10-28T12:00:40.185Z,20.85
2022-10-28T12:03:30.832Z,20.76
2022-10-28T12:06:08.665Z,20.86
2022-10-28T12:09:12.962Z,20.69
2022-10-28T12:12:07.169Z,20.75
2022-10-28T12:15:02.405Z,20.83
2022-10-28T12:17:41.764Z,20.90
2022-10-28T12:20:25.222Z,20.68
2022-10-28T12:22:57.338Z,20.69
2022-10-28T12:25:35.391Z,20.80
2022-10-28T12:28:08.012Z,20.79
2022-10-28T12:30:41.291Z,20.75
2022-10-28T12:33:18.568Z,20.72
2022-10-28T12:35:55.376Z,20.62
2022-10-28T12:38:55.074Z,20.52
2022-10-28T12:41:27.339Z,20.54
2022-10-28T12:44:05.688Z,20.48
2022-10-28T12:47:07.873Z,20.47
2022-10-28T12:49:57.985Z,20.46
2022-10-28T12:52:31.125Z,20.43
2022-10-28T12:55:08.352Z,20.41
2022-10-28T12:57:38.564Z,20.38
2022-10-28T13:00:18.910Z,20.33
2022-10-28T13:03:02.944Z,20.33
2022-10-28T13:05:47.130Z,20.31
2022-10-28T13:09:05.141Z,20.20
2022-10-28T13:11:53.840Z,20.25
2022-10-28T13:14:53.345Z,20.25
2022-10-28T13:17:27.037Z,20.20
2022-10-28T13:20:16.917Z,20.31
2022-10-28T13:23:09.396Z,20.25
2022-10-28T13:26:06.406Z,20.22
2022-10-28T13:29:01.914Z,20.27
2022-10-28T13:31:47.462Z,20.28
2022-10-28T13:34:17.624Z,20.21
2022-10-28T13:36:51.240Z,20.10
2022-10-28T13:39:23.702Z,20.17
2022-10-28T13:42:13.778Z,20.28
2022-10-28T13:44:55.416Z,20.40
2022-10-28T13:47:35.000Z,20.43
2022-10-28T13:50:08.748Z,20.40
2022-10-28T13:52:47.578Z,20.37
2022-10-28T13:55:15.104Z,20.28
2022-10-28T13:57:48.549Z,20.30
2022-10-28T14:00:20.067Z,20.24
2022-10-28T14:02:50.181Z,20.22
2022-10-28T14:05:20.154Z,20.23
2022-10-28T14:08:00.139Z,20.24
2022-10-28T14:10:32.042Z,20.26
2022-10-28T14:13:08.600Z,20.20
2022-10-28T14:15:41.004Z,20.19
2022-10-28T14:18:42.870Z,20.14
2022-10-28T14:21:11.141Z,20.07
2022-10-28T14:23:41.529Z,20.08
2022-10-28T14:26:09.276Z,20.07
2022-10-28T14:28:36.688Z,20.04
2022-10-28T14:31:10.380Z,20.02
2022-10-28T14:33:43.833Z,19.95
2022-10-28T14:36:20.468Z,19.87
2022-10-28T14:39:25.723Z,19.82
2022-10-28T14:42:02.521Z,19.87
2022-10-28T14:44:43.296Z,19.74
2022-10-28T14:47:28.776Z,19.66
2022-10-28T14:50:17.516Z,19.67
2022-10-28T14:52:47.328Z,19.60
2022-10-28T14:55:25.159Z,19.55
2022-10-28T14:57:53.297Z,19.55
2022-10-28T15:00:23.269Z,19.46
2022-10-28T15:02:51.801Z,19.48
2022-10-28T15:05:24.097Z,19.46
2022-10-28T15:07:52.567Z,19.42
2022-10-28T15:10:28.265Z,19.42
2022-10-28T15:12:58.193Z,19.42
2022-10-28T15:15:31.184Z,19.34
2022-10-28T15:18:00.364Z,19.26
2022-10-28T15:20:35.481Z,19.20
2022-10-28T15:23:13.477Z,19.19
2022-10-28T15:25:40.994Z,19.10
2022-10-28T15:28:12.484Z,19.02
2022-10-28T15:30:46.685Z,19.05
2022-10-28T15:33:30.156Z,19.01
2022-10-28T15:36:17.848Z,18.99
2022-10-28T15:39:05.374Z,18.95
2022-10-28T15:41:45.012Z,18.91
2022-10-28T15:44:29.720Z,18.83
2022-10-28T15:46:58.406Z,18.82
2022-10-28T15:49:37.075Z,18.75
2022-10-28T15:52:19.660Z,18.75
2022-10-28T15:54:57.816Z,18.67
2022-10-28T15:57:47.052Z,18.67
2022-10-28T16:00:30.934Z,18.63
2022-10-28T16:03:05.263Z,18.57
2022-10-28T16:05:32.932Z,18.50
2022-10-28T16:08:06.652Z,18.45
2022-10-28T16:10:44.895Z,18.42
2022-10-28T16:13:23.582Z,18.40
2022-10-28T16:16:03.943Z,18.36
2022-10-28T16:18:33.647Z,18.32
2022-10-28T16:21:02.228Z,18.29
2022-10-28T16:23:35.840Z,18.32
2022-10-28T16:26:03.485Z,18.31
2022-10-28T16:28:32.740Z,18.27
2022-10-28T16:31:01.788Z,18.26
2022-10-28T16:33:33.430Z,18.25
2022-10-28T16:36:02.492Z,18.20
2022-10-28T16:38:31.918Z,18.19
2022-10-28T16:41:01.292Z,18.23
2022-10-28T16:43:30.315Z,18.18
2022-10-28T16:46:00.548Z,18.14
2022-10-28T16:48:30.257Z,18.09
2022-10-28T16:51:01.467Z,18.07
2022-10-28T16:53:29.433Z,18.09
2022-10-28T16:55:59.064Z,18.09
2022-10-28T16:58:28.335Z,18.05
2022-10-28T17:00:56.879Z,18.02
2022-10-28T17:03:24.391Z,17.99
2022-10-28T17:05:52.041Z,17.96
2022-10-28T17:08:36.107Z,17.87
2022-10-28T17:11:07.164Z,17.79
2022-10-28T17:13:35.103Z,17.74
2022-10-28T17:16:02.569Z,17.69
2022-10-28T17:18:30.039Z,17.66
2022-10-28T17:21:01.851Z,17.63
2022-10-28T17:23:30.213Z,17.59
2022-10-28T17:26:02.813Z,17.52
2022-10-28T17:28:30.471Z,17.43
2022-10-28T17:31:05.846Z,17.35
2022-10-28T17:33:33.482Z,17.29
2022-10-28T17:36:06.162Z,17.23
2022-10-28T17:38:33.678Z,17.17
2022-10-28T17:41:01.588Z,17.09
2022-10-28T17:43:29.096Z,17.04
2022-10-28T17:46:07.281Z,16.99
2022-10-28T17:48:35.408Z,16.94
2022-10-28T17:51:02.914Z,16.91
2022-10-28T17:53:30.527Z,16.86
2022-10-28T17:55:59.113Z,16.86
2022-10-28T17:58:26.806Z,16.83
2022-10-28T18:01:01.984Z,16.79
2022-10-28T18:03:32.837Z,16.74
2022-10-28T18:06:04.847Z,16.67
2022-10-28T18:08:37.250Z,16.64
2022-10-28T18:11:06.619Z,16.54
2022-10-28T18:13:36.341Z,16.49
2022-10-28T18:16:09.184Z,16.43
2022-10-28T18:18:41.093Z,16.37
2022-10-28T18:21:11.063Z,16.32
2022-10-28T18:23:39.174Z,16.26
2022-10-28T18:26:09.335Z,16.23
2022-10-28T18:28:38.045Z,16.20
2022-10-28T18:31:08.341Z,16.23
2022-10-28T18:33:36.620Z,16.20
2022-10-28T18:36:06.640Z,16.20
2022-10-28T18:38:34.981Z,16.16
2022-10-28T18:41:02.409Z,16.12
2022-10-28T18:43:29.918Z,16.10
2022-10-28T18:46:02.194Z,16.02
2022-10-28T18:48:30.942Z,15.95
2022-10-28T18:51:00.231Z,15.89
2022-10-28T18:53:28.249Z,15.84
2022-10-28T18:56:01.078Z,15.75
2022-10-28T18:58:28.851Z,15.69
2022-10-28T19:01:14.153Z,15.62
2022-10-28T19:03:42.410Z,15.59
2022-10-28T19:06:14.675Z,15.54
2022-10-28T19:08:43.784Z,15.46
2022-10-28T19:11:13.457Z,15.49
2022-10-28T19:13:42.569Z,15.49
2022-10-28T19:16:10.320Z,15.46
2022-10-28T19:18:41.115Z,15.43
2022-10-28T19:21:13.222Z,15.42
2022-10-28T19:23:41.686Z,15.40
2022-10-28T19:26:10.708Z,15.38
2022-10-28T19:28:45.781Z,15.33
2022-10-28T19:31:15.950Z,15.30
2022-10-28T19:33:45.216Z,15.26
2022-10-28T19:36:12.808Z,15.24
2022-10-28T19:38:40.249Z,15.22
2022-10-28T19:41:14.233Z,15.18
2022-10-28T19:43:41.938Z,15.17
2022-10-28T19:46:19.415Z,15.12
2022-10-28T19:48:49.668Z,15.12
2022-10-28T19:51:23.138Z,15.07
2022-10-28T19:53:55.685Z,15.01
2022-10-28T19:56:23.574Z,14.97
2022-10-28T19:58:56.004Z,14.94
2022-10-28T20:01:25.638Z,14.90
2022-10-28T20:03:54.784Z,14.85
2022-10-28T20:06:24.853Z,14.81
2022-10-28T20:08:52.352Z,14.78
2022-10-28T20:11:25.895Z,14.76
2022-10-28T20:13:56.407Z,14.73
2022-10-28T20:16:25.132Z,14.69
2022-10-28T20:18:54.555Z,14.66
2022-10-28T20:21:23.566Z,14.62
2022-10-28T20:23:54.548Z,14.57
2022-10-28T20:26:27.829Z,14.54
2022-10-28T20:28:56.068Z,14.48
2022-10-28T20:31:26.516Z,14.44
2022-10-28T20:33:58.672Z,14.42
2022-10-28T20:36:28.986Z,14.38
2022-10-28T20:39:17.587Z,14.32
2022-10-28T20:41:47.271Z,14.28
2022-10-28T20:44:14.970Z,14.21
2022-10-28T20:46:42.748Z,14.19
2022-10-28T20:49:10.542Z,14.18
2022-10-28T20:51:38.296Z,14.14
2022-10-28T20:54:05.982Z,14.12
2022-10-28T20:56:36.268Z,14.07
2022-10-28T20:59:04.424Z,14.06
2022-10-28T21:01:34.517Z,14.03
2022-10-28T21:04:08.160Z,14.00
2022-10-28T21:06:36.781Z,13.96
2022-10-28T21:09:05.074Z,13.88
2022-10-28T21:11:32.611Z,13.79
2022-10-28T21:14:02.239Z,13.75
2022-10-28T21:16:31.241Z,13.70
2022-10-28T21:19:00.108Z,13.68
2022-10-28T21:21:28.679Z,13.66
2022-10-28T21:23:56.242Z,13.63
2022-10-28T21:26:23.893Z,13.62
2022-10-28T21:28:52.758Z,13.61
2022-10-28T21:31:21.514Z,13.54
2022-10-28T21:36:20.949Z,13.42
2022-10-28T21:38:48.471Z,13.37
2022-10-28T21:41:18.815Z,13.31
2022-10-28T21:43:48.673Z,13.26
2022-10-28T21:46:17.912Z,13.22
2022-10-28T21:48:46.271Z,13.20
2022-10-28T21:51:17.085Z,13.15
2022-10-28T21:53:46.028Z,13.14
2022-10-28T21:56:18.253Z,13.10
2022-10-28T21:58:48.052Z,13.07
2022-10-28T22:01:24.076Z,13.04
2022-10-28T22:03:53.129Z,13.02
2022-10-28T22:06:20.961Z,13.00
2022-10-28T22:08:48.662Z,12.98
2022-10-28T22:11:21.387Z,12.95
2022-10-28T22:13:50.016Z,12.97
2022-10-28T22:16:19.705Z,12.92
2022-10-28T22:18:47.332Z,12.88
2022-10-28T22:21:20.972Z,12.88
2022-10-28T22:23:48.745Z,12.85
2022-10-28T22:26:19.005Z,12.83
2022-10-28T22:28:46.521Z,12.83
2022-10-28T22:31:16.323Z,12.80
2022-10-28T22:33:44.137Z,12.78
2022-10-28T22:36:16.992Z,12.75
2022-10-28T22:38:45.128Z,12.72
2022-10-28T22:41:14.186Z,12.71
2022-10-28T22:43:43.516Z,12.70
2022-10-28T22:46:12.124Z,12.69
2022-10-28T22:48:39.780Z,12.72
2022-10-28T22:51:07.269Z,12.74
2022-10-28T22:53:35.088Z,12.72
2022-10-28T22:56:02.656Z,12.74
2022-10-28T22:58:30.130Z,12.73
2022-10-28T23:01:15.613Z,12.73
2022-10-28T23:03:45.691Z,12.72
2022-10-28T23:06:15.511Z,12.68
2022-10-28T23:08:44.741Z,12.62
2022-10-28T23:11:13.028Z,12.57
2022-10-28T23:13:40.692Z,12.60
2022-10-28T23:16:10.290Z,12.56
2022-10-28T23:18:38.109Z,12.46
2022-10-28T23:21:07.496Z,12.41
2022-10-28T23:23:34.980Z,12.38
2022-10-28T23:26:02.472Z,12.34
2022-10-28T23:28:30.242Z,12.29
2022-10-28T23:31:04.172Z,12.26
2022-10-28T23:33:32.587Z,12.23
2022-10-28T23:36:02.015Z,12.13
2022-10-28T23:38:29.483Z,12.13
2022-10-28T23:41:05.368Z,12.11
2022-10-28T23:43:33.555Z,12.13
2022-10-28T23:46:01.906Z,12.16
2022-10-28T23:48:29.970Z,12.15
2022-10-28T23:50:57.915Z,12.18
2022-10-28T23:53:25.606Z,12.19
2022-10-28T23:55:53.716Z,12.20
2022-10-28T23:58:22.790Z,12.22
